Tracy, Missouri
Current Conditions -  °F | °C
As of 3:53 AM on Friday 24 Oct 2014 (Local Time) from KMCI Reporting Station
Haze Haze  
Wind Chill: 13°   Ceiling: 400
Heat Index: 13°   Visibility: 1.7mi
Dew Point: 13°   Wind: 10mph
Humidity: 100%   Direction: 200°SSW
Pressure: 30.05"   Gusts: NA
Location:  39.3588°N, 94.8136°W
Report Text: KMCI 240853Z 20009KT 1 3/4SM BR BKN004 13/13 A3005 RMK AO2 SLP173 T01280128 58008
Loading
Personal Weather Stations






























Interactive Weather Map
Tropical Storm Tracking
New forecast layout! Learn more

10-Day Weather Forecast

Advertisements
Track Severe Weather on mobile